Time;durP1;ratioP1;P1;durP2;ratioP2;P2;SDS_P1;SDS_P2;PMS_P1;PMS_P2;Temp;Humidity;BMP_temperature;BMP_pressure;BME280_temperature;BME280_humidity;BME280_pressure;Samples;Min_cycle;Max_cycle;Signal;HPM_P1;HPM_P2
2021/03/16 00:00:07;;;;;;;24.95;4.03;;;7.10;94.60;;;;;;5065689;28;20024;-36
2021/03/16 00:02:32;;;;;;;15.25;3.17;;;7.10;94.80;;;;;;5064996;28;20133;-39
2021/03/16 00:04:58;;;;;;;16.58;3.17;;;7.10;94.50;;;;;;5066112;28;20425;-36
2021/03/16 00:07:23;;;;;;;21.23;3.28;;;7.10;94.50;;;;;;5065497;28;20028;-34
2021/03/16 00:09:49;;;;;;;19.60;3.33;;;7.10;94.60;;;;;;5065477;28;20024;-35
2021/03/16 00:12:14;;;;;;;14.63;2.70;;;7.10;94.60;;;;;;5065493;28;20119;-35
2021/03/16 00:14:40;;;;;;;19.98;4.05;;;7.10;94.70;;;;;;5065222;28;20036;-38
2021/03/16 00:17:05;;;;;;;23.55;3.25;;;7.10;94.70;;;;;;5065568;28;20036;-37
2021/03/16 00:19:31;;;;;;;22.08;3.03;;;7.10;94.70;;;;;;5065454;28;20024;-38
2021/03/16 00:21:57;;;;;;;15.65;2.60;;;7.00;94.70;;;;;;5063735;28;20476;-36
2021/03/16 00:24:23;;;;;;;20.42;2.70;;;7.10;95.10;;;;;;5065310;28;20074;-37
2021/03/16 00:26:48;;;;;;;19.90;4.15;;;7.10;94.80;;;;;;5065284;28;20027;-38
2021/03/16 00:29:14;;;;;;;21.05;4.25;;;7.10;94.80;;;;;;5065428;28;20032;-37
2021/03/16 00:31:40;;;;;;;14.68;2.55;;;7.10;94.80;;;;;;5064993;28;20082;-37
2021/03/16 00:34:05;;;;;;;19.42;4.35;;;7.00;94.80;;;;;;5064923;28;20081;-36
2021/03/16 00:36:31;;;;;;;15.82;2.75;;;7.00;94.70;;;;;;5065508;28;20094;-38
2021/03/16 00:38:56;;;;;;;14.85;2.33;;;6.90;94.70;;;;;;5064930;28;20108;-36
2021/03/16 00:41:22;;;;;;;19.95;3.28;;;6.90;94.60;;;;;;5065015;28;20050;-36
2021/03/16 00:43:48;;;;;;;23.48;2.97;;;6.80;94.70;;;;;;5065488;28;20032;-37
2021/03/16 00:46:14;;;;;;;16.73;2.75;;;6.80;94.80;;;;;;5064919;28;20028;-37
2021/03/16 00:48:39;;;;;;;17.30;3.20;;;6.80;94.70;;;;;;5065388;28;20038;-36
2021/03/16 00:51:06;;;;;;;17.77;3.13;;;6.90;94.70;;;;;;5065221;28;20138;-37
2021/03/16 00:53:31;;;;;;;15.77;2.60;;;6.90;94.60;;;;;;5064860;28;20048;-38
2021/03/16 00:55:59;;;;;;;12.35;2.67;;;6.90;94.60;;;;;;5065412;28;20051;-37
2021/03/16 00:58:26;;;;;;;15.65;2.17;;;6.90;94.70;;;;;;5065116;28;20051;-36
2021/03/16 01:00:52;;;;;;;19.42;3.35;;;7.00;94.70;;;;;;5064430;28;20456;-35
2021/03/16 01:03:18;;;;;;;16.25;3.28;;;7.00;94.40;;;;;;5064865;28;20075;-34
2021/03/16 01:05:43;;;;;;;19.98;3.22;;;7.00;94.40;;;;;;5063947;28;20115;-32
2021/03/16 01:08:09;;;;;;;12.32;2.53;;;7.00;94.30;;;;;;5064973;28;20021;-35
2021/03/16 01:10:34;;;;;;;20.17;2.72;;;7.00;94.40;;;;;;5064550;28;20103;-36
2021/03/16 01:13:01;;;;;;;18.27;2.80;;;7.00;94.30;;;;;;5064942;28;20031;-35
2021/03/16 01:15:26;;;;;;;14.95;2.83;;;7.00;93.90;;;;;;5064666;28;20047;-36
2021/03/16 01:17:52;;;;;;;12.93;2.08;;;7.00;93.80;;;;;;5064694;28;20767;-36
2021/03/16 01:20:21;;;;;;;13.10;2.45;;;7.00;93.50;;;;;;5064080;28;20028;-37
2021/03/16 01:22:47;;;;;;;13.65;3.38;;;7.00;93.20;;;;;;5064745;28;20487;-38
2021/03/16 01:25:13;;;;;;;15.50;2.60;;;7.00;93.10;;;;;;5064518;28;20123;-37
2021/03/16 01:27:39;;;;;;;16.95;3.08;;;7.00;93.20;;;;;;5063982;28;20024;-39
2021/03/16 01:30:07;;;;;;;11.32;2.30;;;7.00;93.30;;;;;;5064591;28;20379;-38
2021/03/16 01:32:33;;;;;;;16.88;2.60;;;7.00;93.40;;;;;;5064466;28;20109;-36
2021/03/16 01:34:58;;;;;;;16.85;2.83;;;7.00;93.30;;;;;;5064465;28;20417;-38
2021/03/16 01:37:24;;;;;;;11.90;2.13;;;7.00;93.30;;;;;;5064023;28;20040;-36
2021/03/16 01:39:50;;;;;;;13.00;2.83;;;7.00;93.40;;;;;;5064759;28;20024;-35
2021/03/16 01:42:16;;;;;;;9.70;1.77;;;7.00;93.30;;;;;;5063945;28;20074;-36
2021/03/16 01:44:47;;;;;;;15.40;2.15;;;7.00;93.40;;;;;;5064606;28;20601;-35
2021/03/16 01:47:15;;;;;;;11.98;2.10;;;7.00;93.50;;;;;;5064069;28;20028;-32
2021/03/16 01:49:41;;;;;;;12.05;2.50;;;7.00;93.30;;;;;;5063857;28;20074;-36
2021/03/16 01:52:07;;;;;;;16.00;2.30;;;7.00;93.00;;;;;;5064139;28;20050;-33
2021/03/16 01:54:33;;;;;;;14.05;2.40;;;7.10;93.00;;;;;;5064321;28;20028;-38
2021/03/16 01:57:02;;;;;;;13.80;3.15;;;7.00;92.80;;;;;;5063979;28;20100;-37
2021/03/16 01:59:28;;;;;;;9.93;1.70;;;7.00;92.60;;;;;;5064682;28;20024;-36
2021/03/16 02:01:54;;;;;;;12.35;1.98;;;7.00;92.90;;;;;;5064041;28;20448;-36
2021/03/16 02:04:20;;;;;;;10.82;2.30;;;7.00;92.80;;;;;;5064263;28;20048;-37
2021/03/16 02:07:10;;;;;;;13.23;2.28;;;6.90;92.90;;;;;;5064063;28;20495;-37
2021/03/16 02:09:51;;;;;;;14.23;2.03;;;6.90;93.10;;;;;;5053368;28;20035;-38
2021/03/16 02:12:34;;;;;;;13.20;2.35;;;7.00;93.10;;;;;;5063937;28;20114;-38
2021/03/16 02:15:04;;;;;;;20.67;2.78;;;7.00;93.10;;;;;;5055402;28;20048;-37
2021/03/16 02:17:34;;;;;;;9.65;2.20;;;7.00;92.90;;;;;;5064600;28;20436;-38
2021/03/16 02:20:33;;;;;;;9.70;2.25;;;7.00;93.00;;;;;;5067980;28;20111;-37
2021/03/16 02:23:02;;;;;;;15.80;2.65;;;7.00;92.90;;;;;;5067242;28;20037;-34
2021/03/16 02:25:57;;;;;;;13.65;2.17;;;7.00;92.90;;;;;;5066397;28;20036;-36
2021/03/16 02:28:39;;;;;;;14.02;2.10;;;7.00;93.00;;;;;;5066672;28;20495;-36
2021/03/16 02:31:07;;;;;;;14.55;2.42;;;7.00;92.80;;;;;;5066314;28;20202;-36
2021/03/16 02:33:38;;;;;;;13.27;2.17;;;7.00;92.90;;;;;;5066243;28;20135;-36
2021/03/16 02:36:04;;;;;;;15.88;2.47;;;7.00;92.90;;;;;;5066507;28;20477;-42
2021/03/16 02:38:32;;;;;;;10.95;2.40;;;7.00;92.90;;;;;;5065713;28;20055;-38
2021/03/16 02:41:03;;;;;;;14.30;2.20;;;7.00;93.00;;;;;;5066498;28;20460;-37
2021/03/16 02:43:30;;;;;;;19.00;2.63;;;7.00;92.70;;;;;;5066385;28;20035;-37
2021/03/16 02:45:56;;;;;;;17.48;2.50;;;6.90;92.60;;;;;;5066205;28;20121;-37
2021/03/16 02:48:26;;;;;;;16.77;2.38;;;6.90;92.70;;;;;;5065940;28;20777;-35
2021/03/16 02:50:51;;;;;;;7.45;1.70;;;6.90;92.80;;;;;;5066054;28;20047;-33
2021/03/16 02:53:18;;;;;;;14.40;2.17;;;6.90;92.90;;;;;;5065358;28;20769;-36
2021/03/16 02:55:45;;;;;;;17.98;2.45;;;6.90;92.90;;;;;;5066247;28;20158;-34
2021/03/16 02:58:11;;;;;;;20.75;2.67;;;6.90;92.80;;;;;;5065440;28;20052;-38
2021/03/16 03:00:39;;;;;;;9.95;1.70;;;6.80;92.80;;;;;;5065373;28;20038;-39
2021/03/16 03:03:07;;;;;;;10.23;1.80;;;6.90;92.80;;;;;;5066213;28;20036;-35
2021/03/16 03:05:34;;;;;;;7.95;1.80;;;6.90;92.90;;;;;;5065724;28;20028;-38
2021/03/16 03:08:01;;;;;;;14.85;2.67;;;6.90;92.90;;;;;;5065891;28;20483;-32
2021/03/16 03:10:26;;;;;;;12.82;1.90;;;7.00;92.70;;;;;;5065569;28;20032;-35
2021/03/16 03:12:52;;;;;;;9.45;2.00;;;7.00;92.70;;;;;;5065591;28;20048;-37
2021/03/16 03:15:18;;;;;;;12.38;2.13;;;6.90;92.70;;;;;;5065324;28;20035;-38
2021/03/16 03:17:44;;;;;;;13.77;1.83;;;6.90;92.70;;;;;;5066103;28;20029;-37
2021/03/16 03:20:11;;;;;;;12.82;2.20;;;6.90;93.00;;;;;;5065266;28;20021;-37
2021/03/16 03:22:50;;;;;;;12.80;2.10;;;6.90;92.80;;;;;;5065528;28;20044;-37
2021/03/16 03:25:38;;;;;;;12.45;2.30;;;6.90;92.90;;;;;;5065797;28;20056;-35
2021/03/16 03:28:25;;;;;;;7.28;1.65;;;6.90;92.90;;;;;;5065613;28;20077;-34
2021/03/16 03:30:51;;;;;;;12.63;1.98;;;7.00;93.00;;;;;;5065194;28;20036;-34
2021/03/16 03:33:20;;;;;;;8.70;2.22;;;7.00;92.90;;;;;;5065391;28;20029;-36
2021/03/16 03:35:46;;;;;;;10.88;1.95;;;7.00;92.90;;;;;;5065224;28;20031;-37
2021/03/16 03:38:13;;;;;;;9.15;1.77;;;6.90;92.90;;;;;;5065760;28;20334;-36
2021/03/16 03:40:41;;;;;;;9.13;1.80;;;6.90;92.90;;;;;;5065102;28;20040;-36
2021/03/16 03:43:09;;;;;;;11.07;1.98;;;7.00;93.00;;;;;;5065586;28;20050;-32
2021/03/16 03:45:36;;;;;;;11.23;1.90;;;7.00;93.00;;;;;;5065894;28;20013;-36
2021/03/16 03:48:06;;;;;;;7.47;1.35;;;7.00;93.00;;;;;;5065199;28;20399;-38
2021/03/16 03:50:32;;;;;;;11.23;2.00;;;7.00;93.00;;;;;;5065004;28;20017;-33
2021/03/16 03:52:59;;;;;;;11.07;2.03;;;7.00;92.80;;;;;;5065541;28;20761;-34
2021/03/16 03:55:26;;;;;;;9.90;2.10;;;7.00;92.80;;;;;;5065086;28;20036;-33
2021/03/16 03:57:55;;;;;;;11.32;1.90;;;7.00;92.90;;;;;;5064847;28;20647;-38
2021/03/16 04:00:22;;;;;;;6.95;1.33;;;7.00;92.80;;;;;;5064896;28;20032;-35
2021/03/16 04:02:48;;;;;;;14.88;1.92;;;7.00;92.80;;;;;;5064620;28;20463;-38
2021/03/16 04:05:14;;;;;;;5.00;1.35;;;7.10;92.90;;;;;;5065044;28;20032;-38
2021/03/16 04:07:41;;;;;;;8.63;2.25;;;7.10;92.90;;;;;;5064674;28;20101;-36
2021/03/16 04:10:10;;;;;;;10.32;1.92;;;7.10;93.00;;;;;;5064636;28;20105;-37
2021/03/16 04:12:36;;;;;;;6.60;1.70;;;7.10;93.00;;;;;;5064500;28;20027;-33
2021/03/16 04:15:05;;;;;;;9.57;1.63;;;7.10;93.00;;;;;;5045201;28;20392;-39
2021/03/16 04:17:31;;;;;;;12.25;1.98;;;7.10;93.10;;;;;;5058617;28;20388;-35
2021/03/16 04:19:57;;;;;;;9.60;1.95;;;7.10;93.10;;;;;;5065311;28;20067;-37
2021/03/16 04:22:23;;;;;;;11.02;2.45;;;7.10;93.10;;;;;;5064682;28;20351;-36
2021/03/16 04:24:53;;;;;;;9.18;2.45;;;7.10;93.20;;;;;;5064540;28;20422;-39
2021/03/16 04:27:18;;;;;;;8.23;1.67;;;7.10;93.20;;;;;;5064585;28;20036;-35
2021/03/16 04:29:44;;;;;;;13.75;2.55;;;7.10;93.20;;;;;;5064029;28;20036;-36
2021/03/16 04:32:09;;;;;;;14.90;2.40;;;7.00;93.40;;;;;;5064500;28;20051;-37
2021/03/16 04:34:35;;;;;;;14.27;2.67;;;7.00;93.40;;;;;;5064967;28;20102;-37
2021/03/16 04:37:00;;;;;;;8.10;1.98;;;7.00;93.50;;;;;;5064453;28;20110;-38
2021/03/16 04:39:32;;;;;;;7.85;2.20;;;7.00;93.50;;;;;;5064870;28;20040;-39
2021/03/16 04:42:07;;;;;;;11.77;2.42;;;7.00;93.50;;;;;;5064676;28;20029;-36
2021/03/16 04:44:36;;;;;;;12.02;2.22;;;7.00;93.50;;;;;;5064048;28;20032;-38
2021/03/16 04:47:02;;;;;;;10.48;2.20;;;7.00;93.70;;;;;;5064562;28;20524;-38
2021/03/16 04:49:31;;;;;;;11.98;1.70;;;6.90;93.70;;;;;;5064749;28;20044;-33
2021/03/16 04:51:56;;;;;;;18.17;2.63;;;6.90;93.70;;;;;;5064541;28;20086;-38
2021/03/16 04:54:22;;;;;;;13.23;3.17;;;7.00;93.90;;;;;;5064049;28;20052;-35
2021/03/16 04:56:47;;;;;;;13.02;2.38;;;6.90;93.90;;;;;;5064593;28;20427;-37
2021/03/16 04:59:15;;;;;;;14.05;2.60;;;6.90;93.90;;;;;;5063582;28;20340;-38
2021/03/16 05:01:41;;;;;;;14.68;2.47;;;6.90;94.00;;;;;;5064713;28;20105;-36
2021/03/16 05:04:06;;;;;;;12.45;2.30;;;6.90;94.00;;;;;;5064053;28;20032;-36
2021/03/16 05:06:32;;;;;;;11.57;2.30;;;6.90;94.00;;;;;;5063931;28;20032;-36
2021/03/16 05:08:58;;;;;;;8.95;1.65;;;6.90;94.00;;;;;;5064630;28;20120;-38
2021/03/16 05:11:24;;;;;;;9.38;2.10;;;6.90;94.00;;;;;;5064016;28;20039;-38
2021/03/16 05:13:50;;;;;;;14.07;1.95;;;6.90;94.00;;;;;;5063368;28;20056;-38
2021/03/16 05:16:16;;;;;;;19.73;2.72;;;6.90;94.00;;;;;;5064335;28;20736;-36
2021/03/16 05:18:42;;;;;;;11.18;2.08;;;6.90;94.00;;;;;;5063696;28;20382;-39
2021/03/16 05:21:07;;;;;;;9.82;2.00;;;6.80;94.00;;;;;;5063983;28;20125;-34
2021/03/16 05:23:33;;;;;;;9.82;1.83;;;6.80;94.00;;;;;;5064087;28;20030;-34
2021/03/16 05:25:58;;;;;;;9.75;1.85;;;6.90;94.00;;;;;;5063888;28;21093;-39
2021/03/16 05:28:24;;;;;;;13.93;2.35;;;6.90;94.10;;;;;;5063772;28;20429;-38
2021/03/16 05:30:50;;;;;;;12.60;2.10;;;6.80;94.20;;;;;;5063722;28;20555;-38
2021/03/16 05:33:19;;;;;;;11.80;1.90;;;6.90;94.20;;;;;;5063463;28;20044;-38
2021/03/16 05:35:45;;;;;;;9.77;2.80;;;6.80;94.10;;;;;;5061889;28;20021;-38
2021/03/16 05:38:10;;;;;;;10.50;2.38;;;6.90;94.10;;;;;;5063968;28;20089;-37
2021/03/16 05:40:36;;;;;;;11.48;2.25;;;6.90;94.20;;;;;;5062933;28;20040;-36
2021/03/16 05:43:02;;;;;;;12.43;2.45;;;6.90;94.30;;;;;;5063794;28;20033;-36
2021/03/16 05:45:28;;;;;;;8.63;1.80;;;6.90;94.40;;;;;;5064493;28;20024;-38
2021/03/16 05:47:55;;;;;;;9.98;1.90;;;6.80;94.40;;;;;;5063084;28;20254;-36
2021/03/16 05:50:20;;;;;;;15.38;2.47;;;6.90;94.40;;;;;;5063682;28;20089;-37
2021/03/16 05:52:47;;;;;;;9.35;2.08;;;6.80;94.60;;;;;;5065307;28;20143;-36
2021/03/16 05:55:13;;;;;;;13.57;2.75;;;6.80;94.60;;;;;;5067064;28;20032;-37
2021/03/16 05:57:39;;;;;;;15.55;2.95;;;6.80;94.80;;;;;;5068216;28;20028;-37
2021/03/16 06:00:10;;;;;;;15.48;3.05;;;6.80;94.90;;;;;;5065807;28;20016;-38
2021/03/16 06:02:37;;;;;;;21.08;2.80;;;6.80;95.20;;;;;;5067357;28;20105;-33
2021/03/16 06:05:06;;;;;;;16.90;3.20;;;6.80;95.20;;;;;;5067682;28;20039;-36
2021/03/16 06:07:32;;;;;;;14.38;2.50;;;6.80;95.20;;;;;;5056521;28;20027;-38
2021/03/16 06:10:01;;;;;;;20.15;3.10;;;6.80;95.10;;;;;;5067553;28;20029;-36
2021/03/16 06:12:38;;;;;;;17.77;2.80;;;6.80;95.40;;;;;;5068627;28;20035;-35
2021/03/16 06:15:10;;;;;;;11.73;2.58;;;6.80;95.40;;;;;;5067072;28;20044;-38
2021/03/16 06:17:42;;;;;;;16.05;2.38;;;6.80;95.20;;;;;;5067667;28;20476;-37
2021/03/16 06:20:09;;;;;;;13.37;3.43;;;6.80;95.20;;;;;;5068290;28;20632;-35
2021/03/16 06:22:35;;;;;;;9.18;1.90;;;6.90;95.20;;;;;;5063622;28;20028;-39
2021/03/16 06:25:00;;;;;;;10.07;2.17;;;6.90;95.10;;;;;;5068873;28;20013;-36
2021/03/16 06:27:27;;;;;;;12.00;2.35;;;7.00;95.10;;;;;;5067775;28;20589;-36
2021/03/16 06:29:53;;;;;;;10.10;2.75;;;7.10;95.10;;;;;;5067496;28;20059;-37
2021/03/16 06:32:19;;;;;;;10.38;2.17;;;7.10;95.00;;;;;;5067762;28;20012;-38
2021/03/16 06:34:45;;;;;;;10.60;2.28;;;7.10;95.00;;;;;;5067918;28;20333;-36
2021/03/16 06:37:11;;;;;;;11.30;2.40;;;7.10;95.00;;;;;;5067326;28;20055;-39
2021/03/16 06:39:46;;;;;;;16.80;2.65;;;7.10;95.00;;;;;;5063067;28;20061;-37
2021/03/16 06:42:29;;;;;;;13.90;2.65;;;7.20;94.90;;;;;;5064146;28;20043;-38
2021/03/16 06:45:08;;;;;;;12.32;2.58;;;7.20;95.00;;;;;;5066283;28;20028;-38
2021/03/16 06:47:41;;;;;;;17.90;3.33;;;7.20;94.90;;;;;;5063344;28;20024;-36
2021/03/16 06:50:08;;;;;;;;;;;7.20;94.90;;;;;;5066750;28;20028;-35
2021/03/16 06:52:34;;;;;;;13.02;2.15;;;7.20;94.90;;;;;;5065642;28;20390;-36
2021/03/16 06:55:15;;;;;;;10.38;1.85;;;7.20;94.80;;;;;;5066358;28;20060;-33
2021/03/16 06:57:41;;;;;;;19.13;2.28;;;7.20;94.90;;;;;;5065264;28;20028;-38
2021/03/16 07:00:10;;;;;;;18.60;2.53;;;7.30;94.80;;;;;;5065352;28;20028;-37
2021/03/16 07:02:36;;;;;;;16.88;2.92;;;7.30;94.70;;;;;;5065651;28;20028;-36
2021/03/16 07:05:02;;;;;;;14.75;2.67;;;7.40;94.70;;;;;;5065068;28;20119;-37
2021/03/16 07:07:29;;;;;;;11.60;2.13;;;7.40;94.30;;;;;;5065904;28;20060;-40
2021/03/16 07:10:01;;;;;;;12.73;3.00;;;7.40;94.50;;;;;;5065935;28;20013;-36
2021/03/16 07:12:33;;;;;;;19.13;3.35;;;7.40;94.40;;;;;;5066110;28;20029;-37
2021/03/16 07:14:59;;;;;;;11.85;2.42;;;7.40;94.10;;;;;;5066499;28;20028;-34
2021/03/16 07:17:32;;;;;;;10.80;2.30;;;7.40;94.20;;;;;;5066276;28;20050;-37
2021/03/16 07:20:04;;;;;;;11.35;2.05;;;7.40;94.00;;;;;;5064665;28;20416;-35
2021/03/16 07:22:35;;;;;;;15.55;2.40;;;7.40;94.10;;;;;;5066853;28;20127;-37
2021/03/16 07:25:04;;;;;;;11.70;2.70;;;7.50;94.10;;;;;;5066677;28;20012;-34
2021/03/16 07:27:31;;;;;;;7.45;2.10;;;7.50;94.10;;;;;;5066536;28;20036;-35
2021/03/16 07:29:58;;;;;;;11.05;2.38;;;7.50;94.10;;;;;;5067205;28;20484;-35
2021/03/16 07:32:24;;;;;;;18.58;2.97;;;7.60;94.10;;;;;;5066191;28;20056;-38
2021/03/16 07:34:53;;;;;;;15.45;2.90;;;7.60;94.00;;;;;;5065439;28;20657;-34
2021/03/16 07:37:19;;;;;;;14.98;2.75;;;7.60;94.10;;;;;;5066706;28;20158;-36
2021/03/16 07:39:48;;;;;;;17.38;2.50;;;7.70;94.10;;;;;;5066027;28;20037;-38
2021/03/16 07:42:15;;;;;;;15.02;2.80;;;7.80;93.90;;;;;;5066609;28;20032;-36
2021/03/16 07:44:44;;;;;;;9.70;2.20;;;7.90;93.80;;;;;;5066063;28;20024;-35
2021/03/16 07:47:09;;;;;;;13.85;2.53;;;7.90;93.70;;;;;;5046031;28;20041;-42
2021/03/16 07:49:38;;;;;;;13.30;3.42;;;8.00;93.50;;;;;;5060350;28;20341;-34
2021/03/16 07:52:15;;;;;;;13.43;3.05;;;8.00;93.50;;;;;;5066284;28;20047;-38
2021/03/16 07:54:47;;;;;;;13.40;2.00;;;8.00;93.40;;;;;;5066018;28;20020;-39
2021/03/16 07:57:13;;;;;;;10.65;2.30;;;8.00;93.10;;;;;;5066418;28;20025;-37
2021/03/16 07:59:38;;;;;;;19.48;3.60;;;7.90;93.20;;;;;;5065720;28;20043;-36
2021/03/16 08:02:04;;;;;;;18.63;3.42;;;7.90;93.10;;;;;;5065145;28;20468;-34
2021/03/16 08:04:40;;;;;;;19.42;3.63;;;7.90;93.10;;;;;;5065798;28;20036;-36
2021/03/16 08:07:08;;;;;;;12.38;2.50;;;7.90;92.70;;;;;;5064244;28;20084;-37
2021/03/16 08:09:52;;;;;;;18.00;2.50;;;7.90;92.70;;;;;;5064823;28;20400;-37
2021/03/16 08:12:23;;;;;;;9.30;2.28;;;7.80;92.90;;;;;;5066150;28;20073;-36
2021/03/16 08:14:48;;;;;;;11.35;2.40;;;7.90;93.00;;;;;;5064865;28;20031;-36
2021/03/16 08:17:32;;;;;;;16.25;3.20;;;8.00;92.90;;;;;;5066099;28;20029;-35
2021/03/16 08:19:59;;;;;;;14.93;2.63;;;8.00;92.50;;;;;;5066220;28;20028;-36
2021/03/16 08:22:27;;;;;;;16.10;3.05;;;8.10;92.10;;;;;;5065407;28;20424;-32
2021/03/16 08:25:00;;;;;;;11.13;2.33;;;8.10;91.90;;;;;;5065368;28;20063;-35
2021/03/16 08:27:26;;;;;;;;;;;8.00;92.20;;;;;;5065847;28;20024;-35
2021/03/16 08:29:52;;;;;;;14.40;2.88;;;8.00;92.20;;;;;;5064983;28;20010;-37
2021/03/16 08:32:19;;;;;;;11.00;2.30;;;8.10;92.20;;;;;;5064769;28;20158;-39
2021/03/16 08:34:49;;;;;;;10.50;1.98;;;8.10;92.30;;;;;;5065215;28;20031;-38
2021/03/16 08:37:29;;;;;;;17.45;2.53;;;8.20;92.30;;;;;;5065285;28;20371;-39
2021/03/16 08:39:55;;;;;;;13.88;2.28;;;8.30;92.00;;;;;;5065493;28;20040;-38
2021/03/16 08:42:26;;;;;;;12.95;2.60;;;8.30;92.10;;;;;;5065739;28;20131;-37
2021/03/16 08:44:53;;;;;;;13.98;2.50;;;8.30;91.60;;;;;;5064844;28;20032;-37
2021/03/16 08:47:21;;;;;;;9.70;2.13;;;8.40;91.90;;;;;;5065632;28;20085;-38
2021/03/16 08:49:49;;;;;;;12.07;2.28;;;8.40;91.60;;;;;;5065535;28;20123;-36
2021/03/16 08:52:17;;;;;;;11.90;2.50;;;8.50;91.70;;;;;;5064938;28;20100;-41
2021/03/16 08:54:43;;;;;;;11.43;2.03;;;8.50;91.40;;;;;;5066154;28;20057;-39
2021/03/16 08:57:09;;;;;;;9.57;2.13;;;8.60;91.60;;;;;;5064930;28;20036;-33
2021/03/16 08:59:35;;;;;;;11.85;2.70;;;8.70;91.70;;;;;;5066146;28;20030;-38
2021/03/16 09:02:00;;;;;;;11.32;2.10;;;8.80;91.30;;;;;;5065926;28;20027;-38
2021/03/16 09:04:26;;;;;;;13.52;2.42;;;8.80;91.20;;;;;;5065753;28;20119;-34
2021/03/16 09:06:53;;;;;;;11.30;2.45;;;8.80;91.30;;;;;;5065834;28;20020;-37
2021/03/16 09:09:27;;;;;;;13.07;2.58;;;8.90;90.50;;;;;;5065977;28;20021;-36
2021/03/16 09:11:56;;;;;;;9.43;1.98;;;8.80;90.90;;;;;;5063194;28;20131;-38
2021/03/16 09:14:23;;;;;;;17.92;2.88;;;8.90;91.10;;;;;;5065588;28;20562;-36
2021/03/16 09:16:53;;;;;;;15.50;2.92;;;8.90;90.80;;;;;;5065787;28;20107;-37
2021/03/16 09:19:32;;;;;;;11.95;2.72;;;8.90;90.30;;;;;;5065542;28;20036;-37
2021/03/16 09:22:00;;;;;;;9.10;2.55;;;8.90;90.20;;;;;;5065825;28;20147;-36
2021/03/16 09:24:27;;;;;;;13.02;2.20;;;8.90;90.40;;;;;;5065646;28;20079;-36
2021/03/16 09:27:02;;;;;;;11.75;2.30;;;8.90;89.80;;;;;;5063665;28;20032;-37
2021/03/16 09:29:34;;;;;;;8.13;1.88;;;9.00;90.10;;;;;;5064692;28;20059;-36
2021/03/16 09:32:08;;;;;;;7.37;1.67;;;9.10;89.40;;;;;;5064489;28;20024;-35
2021/03/16 09:34:36;;;;;;;11.10;1.92;;;9.10;88.90;;;;;;5065902;28;20259;-37
2021/03/16 09:37:08;;;;;;;9.50;2.08;;;9.20;88.90;;;;;;5065385;28;20024;-37
2021/03/16 09:39:34;;;;;;;9.32;2.30;;;9.20;88.60;;;;;;5065555;28;20111;-36
2021/03/16 09:42:07;;;;;;;11.82;1.83;;;9.30;89.10;;;;;;5065497;28;20223;-40
2021/03/16 09:44:34;;;;;;;12.65;2.42;;;9.30;88.70;;;;;;5065307;28;20039;-38
2021/03/16 09:47:00;;;;;;;14.02;2.42;;;9.40;87.30;;;;;;5064760;28;20029;-38
2021/03/16 09:49:49;;;;;;;9.73;1.95;;;9.30;86.40;;;;;;5064787;28;20020;-35
2021/03/16 09:52:14;;;;;;;10.13;1.90;;;9.20;85.30;;;;;;5064633;28;20021;-38
2021/03/16 09:54:45;;;;;;;9.23;1.92;;;9.10;86.70;;;;;;5065529;28;20127;-37
2021/03/16 09:57:13;;;;;;;10.45;1.80;;;9.10;86.80;;;;;;5064044;28;20510;-38
2021/03/16 09:59:41;;;;;;;11.00;1.80;;;9.10;86.90;;;;;;5064013;28;20528;-31
2021/03/16 10:02:07;;;;;;;9.82;2.05;;;9.20;87.60;;;;;;5064002;28;20197;-38
2021/03/16 10:05:09;;;;;;;9.98;1.98;;;9.30;86.30;;;;;;5064189;28;20555;-39
2021/03/16 10:07:36;;;;;;;9.38;1.80;;;9.20;87.00;;;;;;5056829;28;20115;-39
2021/03/16 10:10:31;;;;;;;8.75;1.90;;;9.20;87.60;;;;;;5064563;28;20021;-35
2021/03/16 10:13:07;;;;;;;9.60;2.53;;;9.30;88.20;;;;;;5063631;28;20041;-36
2021/03/16 10:15:41;;;;;;;8.38;1.67;;;9.40;87.20;;;;;;5064089;28;20033;-35
2021/03/16 10:18:13;;;;;;;7.90;1.83;;;9.50;86.60;;;;;;5064583;28;20486;-36
2021/03/16 10:20:40;;;;;;;8.25;1.75;;;9.50;84.70;;;;;;5065229;28;20020;-36
2021/03/16 10:23:09;;;;;;;11.73;2.10;;;9.50;85.80;;;;;;5064332;28;20420;-38
2021/03/16 10:25:36;;;;;;;10.02;2.13;;;9.60;84.60;;;;;;5064038;28;20103;-38
2021/03/16 10:28:07;;;;;;;6.97;1.60;;;9.50;83.70;;;;;;5065883;28;20555;-34
2021/03/16 10:30:45;;;;;;;7.60;1.55;;;9.50;84.20;;;;;;5064706;28;20032;-38
2021/03/16 10:33:14;;;;;;;13.50;2.05;;;9.50;85.20;;;;;;5065431;28;20111;-38
2021/03/16 10:35:45;;;;;;;9.75;1.92;;;9.60;85.80;;;;;;5065152;28;20029;-38
2021/03/16 10:38:11;;;;;;;14.00;1.98;;;9.80;85.70;;;;;;5066736;28;20120;-38
2021/03/16 10:40:37;;;;;;;5.43;1.50;;;9.80;83.50;;;;;;5068534;28;20111;-40
2021/03/16 10:43:06;;;;;;;7.97;1.77;;;9.90;83.50;;;;;;5068158;28;20169;-33
2021/03/16 10:45:31;;;;;;;11.50;2.05;;;9.90;83.50;;;;;;5067905;28;20124;-37
2021/03/16 10:47:57;;;;;;;8.10;1.63;;;9.90;81.80;;;;;;5066424;28;20029;-39
2021/03/16 10:50:23;;;;;;;5.05;1.27;;;9.90;82.40;;;;;;5067693;28;20024;-37
2021/03/16 10:52:54;;;;;;;6.00;1.33;;;9.90;83.10;;;;;;5067874;28;20468;-38
2021/03/16 10:55:20;;;;;;;5.90;1.67;;;10.00;83.60;;;;;;5067851;28;20472;-38
2021/03/16 10:57:46;;;;;;;6.65;1.48;;;10.10;81.00;;;;;;5067798;28;20126;-36
2021/03/16 11:00:12;;;;;;;12.63;2.25;;;10.10;81.30;;;;;;5067456;28;20105;-38
2021/03/16 11:02:37;;;;;;;6.72;1.27;;;10.10;81.40;;;;;;5068096;28;20044;-33
2021/03/16 11:05:03;;;;;;;8.90;1.90;;;10.00;81.80;;;;;;5067429;28;20020;-38
2021/03/16 11:07:29;;;;;;;7.55;1.58;;;10.00;80.30;;;;;;5068474;28;20028;-36
2021/03/16 11:09:55;;;;;;;8.38;1.95;;;10.10;80.80;;;;;;5067460;28;20025;-37
2021/03/16 11:12:20;;;;;;;8.63;1.58;;;10.20;79.30;;;;;;5067605;28;20102;-37
2021/03/16 11:14:46;;;;;;;8.98;1.67;;;10.20;79.70;;;;;;5067291;28;20055;-36
2021/03/16 11:17:12;;;;;;;9.55;2.05;;;10.20;79.20;;;;;;5066425;28;20109;-38
2021/03/16 11:19:40;;;;;;;9.25;1.52;;;10.20;79.80;;;;;;5066335;28;20036;-39
2021/03/16 11:22:06;;;;;;;9.18;1.52;;;10.20;79.30;;;;;;5066639;28;20100;-40
2021/03/16 11:24:31;;;;;;;9.43;1.88;;;10.30;78.20;;;;;;5066374;28;20024;-36
2021/03/16 11:26:57;;;;;;;7.80;2.08;;;10.30;76.70;;;;;;5067021;28;20494;-39
2021/03/16 11:29:22;;;;;;;7.47;1.60;;;10.40;76.60;;;;;;5067245;28;20035;-37
2021/03/16 11:31:48;;;;;;;5.63;1.48;;;10.40;75.00;;;;;;5066879;28;20078;-35
2021/03/16 11:34:13;;;;;;;7.75;1.65;;;10.30;76.60;;;;;;5066868;28;20028;-38
2021/03/16 11:36:39;;;;;;;8.25;1.65;;;10.40;76.30;;;;;;5066475;28;20021;-33
2021/03/16 11:39:05;;;;;;;5.75;1.40;;;10.40;76.60;;;;;;5066434;28;20027;-36
2021/03/16 11:41:31;;;;;;;12.07;2.03;;;10.50;76.70;;;;;;5066047;28;20013;-38
2021/03/16 11:43:56;;;;;;;8.93;1.60;;;10.50;76.40;;;;;;5066587;28;20048;-36
2021/03/16 11:46:22;;;;;;;6.78;1.50;;;10.50;76.70;;;;;;5066157;28;20016;-38
2021/03/16 11:48:48;;;;;;;8.07;1.55;;;10.50;77.50;;;;;;5066372;28;20515;-37
2021/03/16 11:51:13;;;;;;;6.50;1.95;;;10.40;77.50;;;;;;5065502;28;20013;-35
2021/03/16 11:53:39;;;;;;;5.65;2.00;;;10.40;78.40;;;;;;5065672;28;20524;-38
2021/03/16 11:56:05;;;;;;;13.07;2.35;;;10.40;78.00;;;;;;5066077;28;20028;-35
2021/03/16 11:58:32;;;;;;;8.32;2.55;;;10.30;79.00;;;;;;5065772;28;20125;-33
2021/03/16 12:00:58;;;;;;;10.88;1.80;;;10.30;79.70;;;;;;5066193;28;20092;-35
2021/03/16 12:03:26;;;;;;;8.43;2.05;;;10.20;80.40;;;;;;5065492;28;20173;-37
2021/03/16 12:05:51;;;;;;;6.20;1.63;;;10.30;81.40;;;;;;5066253;28;20028;-35
2021/03/16 12:08:17;;;;;;;4.97;1.95;;;10.30;81.50;;;;;;5065724;28;20090;-36
2021/03/16 12:10:43;;;;;;;5.85;1.73;;;10.30;81.80;;;;;;5065676;28;20354;-38
2021/03/16 12:13:12;;;;;;;7.97;1.63;;;10.40;82.10;;;;;;5065065;28;20032;-37
2021/03/16 12:15:38;;;;;;;6.68;1.65;;;10.50;82.10;;;;;;5064881;28;20025;-35
2021/03/16 12:18:04;;;;;;;8.30;1.60;;;10.60;80.90;;;;;;5065101;28;20036;-36
2021/03/16 12:20:29;;;;;;;8.32;1.80;;;10.60;81.30;;;;;;5065454;28;20031;-36
2021/03/16 12:22:56;;;;;;;8.18;1.90;;;10.70;80.80;;;;;;5065020;28;20033;-37
2021/03/16 12:25:22;;;;;;;7.05;1.52;;;10.70;78.50;;;;;;5065346;28;20099;-35
2021/03/16 12:27:47;;;;;;;5.32;1.40;;;10.60;78.60;;;;;;5064872;28;20028;-39
2021/03/16 12:30:13;;;;;;;8.32;1.33;;;10.70;79.30;;;;;;5063449;28;20081;-36
2021/03/16 12:32:39;;;;;;;6.35;1.52;;;10.70;76.20;;;;;;5063664;28;20036;-36
2021/03/16 12:35:09;;;;;;;4.40;1.25;;;10.70;77.00;;;;;;5062736;28;20839;-37
2021/03/16 12:37:36;;;;;;;5.15;1.52;;;10.80;77.10;;;;;;5065087;28;20025;-37
2021/03/16 12:40:03;;;;;;;6.15;1.35;;;10.80;76.70;;;;;;5065657;28;20075;-38
2021/03/16 12:42:33;;;;;;;9.20;1.60;;;10.80;77.20;;;;;;5064711;28;20424;-36
2021/03/16 12:44:59;;;;;;;7.18;1.55;;;10.70;74.90;;;;;;5062577;28;20043;-37
2021/03/16 12:47:24;;;;;;;8.82;1.60;;;10.70;75.40;;;;;;5065051;28;20024;-38
2021/03/16 12:49:51;;;;;;;6.63;1.45;;;10.60;74.00;;;;;;5066166;28;20504;-35
2021/03/16 12:52:16;;;;;;;5.72;1.35;;;10.60;75.30;;;;;;5064224;28;20617;-37
2021/03/16 12:54:42;;;;;;;4.97;1.20;;;10.60;75.00;;;;;;5065060;28;20037;-39